sensor_id;sensor_type;location;lat;lon;timestamp;P1;durP1;ratioP1;P2;durP2;ratioP2
2546;SDS011;1283;47.982;7.834;2022-09-12T00:00:50;8.00;;;1.90;;
2546;SDS011;1283;47.982;7.834;2022-09-12T00:03:16;4.88;;;1.80;;
2546;SDS011;1283;47.982;7.834;2022-09-12T00:05:43;2.97;;;1.67;;
2546;SDS011;1283;47.982;7.834;2022-09-12T00:08:11;4.05;;;1.60;;
2546;SDS011;1283;47.982;7.834;2022-09-12T00:10:40;2.15;;;1.52;;
2546;SDS011;1283;47.982;7.834;2022-09-12T00:13:08;6.72;;;1.85;;
2546;SDS011;1283;47.982;7.834;2022-09-12T00:15:36;6.28;;;1.98;;
2546;SDS011;1283;47.982;7.834;2022-09-12T00:18:03;2.08;;;1.88;;
2546;SDS011;1283;47.982;7.834;2022-09-12T00:20:30;8.35;;;2.03;;
2546;SDS011;1283;47.982;7.834;2022-09-12T00:22:56;5.25;;;1.55;;
2546;SDS011;1283;47.982;7.834;2022-09-12T00:25:23;3.60;;;2.22;;
2546;SDS011;1283;47.982;7.834;2022-09-12T00:27:51;10.48;;;1.70;;
2546;SDS011;1283;47.982;7.834;2022-09-12T00:30:17;2.83;;;1.77;;
2546;SDS011;1283;47.982;7.834;2022-09-12T00:32:44;7.78;;;2.00;;
2546;SDS011;1283;47.982;7.834;2022-09-12T00:37:37;2.90;;;2.20;;
2546;SDS011;1283;47.982;7.834;2022-09-12T00:42:29;2.72;;;1.75;;
2546;SDS011;1283;47.982;7.834;2022-09-12T00:47:24;3.88;;;2.13;;
2546;SDS011;1283;47.982;7.834;2022-09-12T00:49:54;3.22;;;1.80;;
2546;SDS011;1283;47.982;7.834;2022-09-12T00:52:25;2.10;;;1.70;;
2546;SDS011;1283;47.982;7.834;2022-09-12T00:54:54;6.13;;;2.17;;
2546;SDS011;1283;47.982;7.834;2022-09-12T00:57:24;3.60;;;2.22;;
2546;SDS011;1283;47.982;7.834;2022-09-12T00:59:54;11.85;;;2.83;;
2546;SDS011;1283;47.982;7.834;2022-09-12T01:02:23;3.33;;;2.17;;
2546;SDS011;1283;47.982;7.834;2022-09-12T01:04:50;6.03;;;2.50;;
2546;SDS011;1283;47.982;7.834;2022-09-12T01:07:17;4.70;;;2.60;;
2546;SDS011;1283;47.982;7.834;2022-09-12T01:09:44;4.00;;;2.10;;
2546;SDS011;1283;47.982;7.834;2022-09-12T01:12:11;2.90;;;2.13;;
2546;SDS011;1283;47.982;7.834;2022-09-12T01:14:39;5.68;;;2.20;;
2546;SDS011;1283;47.982;7.834;2022-09-12T01:17:05;2.85;;;2.25;;
2546;SDS011;1283;47.982;7.834;2022-09-12T01:19:38;11.38;;;2.72;;
2546;SDS011;1283;47.982;7.834;2022-09-12T01:22:18;3.85;;;2.17;;
2546;SDS011;1283;47.982;7.834;2022-09-12T01:24:58;4.47;;;2.30;;
2546;SDS011;1283;47.982;7.834;2022-09-12T01:27:39;6.10;;;2.35;;
2546;SDS011;1283;47.982;7.834;2022-09-12T01:30:32;5.32;;;3.20;;
2546;SDS011;1283;47.982;7.834;2022-09-12T01:33:14;4.95;;;2.55;;
2546;SDS011;1283;47.982;7.834;2022-09-12T01:35:50;4.78;;;2.30;;
2546;SDS011;1283;47.982;7.834;2022-09-12T01:38:26;5.90;;;2.40;;
2546;SDS011;1283;47.982;7.834;2022-09-12T01:40:58;7.90;;;2.25;;
2546;SDS011;1283;47.982;7.834;2022-09-12T01:43:30;4.85;;;2.15;;
2546;SDS011;1283;47.982;7.834;2022-09-12T01:46:02;3.25;;;2.22;;
2546;SDS011;1283;47.982;7.834;2022-09-12T01:48:32;4.93;;;1.95;;
2546;SDS011;1283;47.982;7.834;2022-09-12T01:51:03;4.70;;;2.17;;
2546;SDS011;1283;47.982;7.834;2022-09-12T01:53:33;8.48;;;2.25;;
2546;SDS011;1283;47.982;7.834;2022-09-12T01:56:05;6.22;;;2.00;;
2546;SDS011;1283;47.982;7.834;2022-09-12T01:58:34;3.47;;;1.67;;
2546;SDS011;1283;47.982;7.834;2022-09-12T02:01:05;6.82;;;1.73;;
2546;SDS011;1283;47.982;7.834;2022-09-12T02:03:36;2.55;;;1.95;;
2546;SDS011;1283;47.982;7.834;2022-09-12T02:06:07;2.92;;;2.15;;
2546;SDS011;1283;47.982;7.834;2022-09-12T02:08:37;2.60;;;2.20;;
2546;SDS011;1283;47.982;7.834;2022-09-12T02:11:07;3.08;;;1.77;;
2546;SDS011;1283;47.982;7.834;2022-09-12T02:13:37;4.72;;;1.77;;
2546;SDS011;1283;47.982;7.834;2022-09-12T02:16:09;1.77;;;1.55;;
2546;SDS011;1283;47.982;7.834;2022-09-12T02:18:38;6.45;;;3.08;;
2546;SDS011;1283;47.982;7.834;2022-09-12T02:21:07;5.82;;;1.95;;
2546;SDS011;1283;47.982;7.834;2022-09-12T02:23:35;4.55;;;1.83;;
2546;SDS011;1283;47.982;7.834;2022-09-12T02:26:05;5.55;;;2.03;;
2546;SDS011;1283;47.982;7.834;2022-09-12T02:28:37;2.53;;;1.73;;
2546;SDS011;1283;47.982;7.834;2022-09-12T02:31:08;4.40;;;1.65;;
2546;SDS011;1283;47.982;7.834;2022-09-12T02:33:43;2.88;;;1.85;;
2546;SDS011;1283;47.982;7.834;2022-09-12T02:36:15;4.65;;;1.88;;
2546;SDS011;1283;47.982;7.834;2022-09-12T02:38:50;4.93;;;2.17;;
2546;SDS011;1283;47.982;7.834;2022-09-12T02:41:18;2.65;;;1.90;;
2546;SDS011;1283;47.982;7.834;2022-09-12T02:43:45;2.83;;;1.90;;
2546;SDS011;1283;47.982;7.834;2022-09-12T02:46:16;4.28;;;2.10;;
2546;SDS011;1283;47.982;7.834;2022-09-12T02:48:44;6.00;;;2.22;;
2546;SDS011;1283;47.982;7.834;2022-09-12T02:51:10;5.82;;;2.00;;
2546;SDS011;1283;47.982;7.834;2022-09-12T02:53:37;4.55;;;1.70;;
2546;SDS011;1283;47.982;7.834;2022-09-12T02:56:04;5.85;;;2.17;;
2546;SDS011;1283;47.982;7.834;2022-09-12T02:58:33;2.00;;;1.70;;
2546;SDS011;1283;47.982;7.834;2022-09-12T03:01:02;5.85;;;1.73;;
2546;SDS011;1283;47.982;7.834;2022-09-12T03:03:43;7.28;;;1.95;;
2546;SDS011;1283;47.982;7.834;2022-09-12T03:06:19;7.63;;;1.90;;
2546;SDS011;1283;47.982;7.834;2022-09-12T03:08:54;3.28;;;1.83;;
2546;SDS011;1283;47.982;7.834;2022-09-12T03:11:27;2.92;;;1.75;;
2546;SDS011;1283;47.982;7.834;2022-09-12T03:14:16;5.93;;;2.15;;
2546;SDS011;1283;47.982;7.834;2022-09-12T03:16:50;4.75;;;1.75;;
2546;SDS011;1283;47.982;7.834;2022-09-12T03:19:23;5.38;;;1.90;;
2546;SDS011;1283;47.982;7.834;2022-09-12T03:21:55;2.75;;;2.00;;
2546;SDS011;1283;47.982;7.834;2022-09-12T03:24:24;3.92;;;1.70;;
2546;SDS011;1283;47.982;7.834;2022-09-12T03:26:57;6.13;;;2.22;;
2546;SDS011;1283;47.982;7.834;2022-09-12T03:29:27;6.53;;;3.08;;
2546;SDS011;1283;47.982;7.834;2022-09-12T03:31:54;6.57;;;2.33;;
2546;SDS011;1283;47.982;7.834;2022-09-12T03:34:23;7.70;;;2.15;;
2546;SDS011;1283;47.982;7.834;2022-09-12T03:36:50;4.93;;;1.75;;
2546;SDS011;1283;47.982;7.834;2022-09-12T03:39:19;5.35;;;2.05;;
2546;SDS011;1283;47.982;7.834;2022-09-12T03:41:48;8.23;;;1.75;;
2546;SDS011;1283;47.982;7.834;2022-09-12T03:44:14;7.50;;;3.05;;
2546;SDS011;1283;47.982;7.834;2022-09-12T03:46:41;3.72;;;2.00;;
2546;SDS011;1283;47.982;7.834;2022-09-12T03:49:07;3.75;;;1.52;;
2546;SDS011;1283;47.982;7.834;2022-09-12T03:51:36;2.22;;;1.85;;
2546;SDS011;1283;47.982;7.834;2022-09-12T03:54:02;3.83;;;1.90;;
2546;SDS011;1283;47.982;7.834;2022-09-12T03:56:29;9.23;;;2.13;;
2546;SDS011;1283;47.982;7.834;2022-09-12T03:58:55;2.72;;;1.77;;
2546;SDS011;1283;47.982;7.834;2022-09-12T04:01:22;6.97;;;1.98;;
2546;SDS011;1283;47.982;7.834;2022-09-12T04:03:49;7.22;;;2.10;;
2546;SDS011;1283;47.982;7.834;2022-09-12T04:06:17;5.20;;;1.60;;
2546;SDS011;1283;47.982;7.834;2022-09-12T04:08:48;1.83;;;1.42;;
2546;SDS011;1283;47.982;7.834;2022-09-12T04:11:15;3.63;;;1.40;;
2546;SDS011;1283;47.982;7.834;2022-09-12T04:13:42;2.03;;;1.42;;
2546;SDS011;1283;47.982;7.834;2022-09-12T04:16:10;5.20;;;1.88;;
2546;SDS011;1283;47.982;7.834;2022-09-12T04:18:37;2.35;;;1.60;;
2546;SDS011;1283;47.982;7.834;2022-09-12T04:21:04;3.60;;;1.40;;
2546;SDS011;1283;47.982;7.834;2022-09-12T04:23:31;5.50;;;1.63;;
2546;SDS011;1283;47.982;7.834;2022-09-12T04:25:59;4.78;;;1.70;;
2546;SDS011;1283;47.982;7.834;2022-09-12T04:28:26;3.20;;;1.52;;
2546;SDS011;1283;47.982;7.834;2022-09-12T04:30:54;8.55;;;1.77;;
2546;SDS011;1283;47.982;7.834;2022-09-12T04:33:21;1.98;;;1.38;;
2546;SDS011;1283;47.982;7.834;2022-09-12T04:35:48;2.28;;;1.50;;
2546;SDS011;1283;47.982;7.834;2022-09-12T04:38:15;6.53;;;2.47;;
2546;SDS011;1283;47.982;7.834;2022-09-12T04:40:41;5.97;;;2.10;;
2546;SDS011;1283;47.982;7.834;2022-09-12T04:43:09;4.13;;;1.42;;
2546;SDS011;1283;47.982;7.834;2022-09-12T04:45:36;3.75;;;1.60;;
2546;SDS011;1283;47.982;7.834;2022-09-12T04:48:02;4.47;;;1.77;;
2546;SDS011;1283;47.982;7.834;2022-09-12T04:50:28;5.22;;;1.83;;
2546;SDS011;1283;47.982;7.834;2022-09-12T04:52:55;3.80;;;1.83;;
2546;SDS011;1283;47.982;7.834;2022-09-12T04:55:22;5.25;;;1.92;;
2546;SDS011;1283;47.982;7.834;2022-09-12T04:57:49;12.32;;;2.00;;
2546;SDS011;1283;47.982;7.834;2022-09-12T05:00:17;9.55;;;2.40;;
2546;SDS011;1283;47.982;7.834;2022-09-12T05:02:44;8.73;;;2.03;;
2546;SDS011;1283;47.982;7.834;2022-09-12T05:05:11;3.13;;;1.55;;
2546;SDS011;1283;47.982;7.834;2022-09-12T05:07:37;2.17;;;1.80;;
2546;SDS011;1283;47.982;7.834;2022-09-12T05:10:04;2.78;;;1.88;;
2546;SDS011;1283;47.982;7.834;2022-09-12T05:12:31;4.28;;;1.60;;
2546;SDS011;1283;47.982;7.834;2022-09-12T05:14:57;9.70;;;1.80;;
2546;SDS011;1283;47.982;7.834;2022-09-12T05:17:25;5.63;;;2.03;;
2546;SDS011;1283;47.982;7.834;2022-09-12T05:19:53;2.25;;;1.80;;
2546;SDS011;1283;47.982;7.834;2022-09-12T05:22:20;3.55;;;1.88;;
2546;SDS011;1283;47.982;7.834;2022-09-12T05:24:46;3.00;;;1.60;;
2546;SDS011;1283;47.982;7.834;2022-09-12T05:29:39;4.07;;;1.50;;
2546;SDS011;1283;47.982;7.834;2022-09-12T05:32:08;4.65;;;1.95;;
2546;SDS011;1283;47.982;7.834;2022-09-12T05:34:37;2.22;;;1.70;;
2546;SDS011;1283;47.982;7.834;2022-09-12T05:37:04;4.60;;;1.90;;
2546;SDS011;1283;47.982;7.834;2022-09-12T05:39:30;4.40;;;2.00;;
2546;SDS011;1283;47.982;7.834;2022-09-12T05:41:57;9.05;;;1.80;;
2546;SDS011;1283;47.982;7.834;2022-09-12T05:44:24;6.90;;;1.60;;
2546;SDS011;1283;47.982;7.834;2022-09-12T05:46:50;2.97;;;2.00;;
2546;SDS011;1283;47.982;7.834;2022-09-12T05:49:17;6.70;;;2.00;;
2546;SDS011;1283;47.982;7.834;2022-09-12T05:51:46;4.68;;;1.90;;
2546;SDS011;1283;47.982;7.834;2022-09-12T05:54:14;9.45;;;2.20;;
2546;SDS011;1283;47.982;7.834;2022-09-12T05:56:44;5.55;;;2.20;;
2546;SDS011;1283;47.982;7.834;2022-09-12T05:59:11;2.88;;;2.00;;
2546;SDS011;1283;47.982;7.834;2022-09-12T06:01:39;7.03;;;2.00;;
2546;SDS011;1283;47.982;7.834;2022-09-12T06:04:05;3.80;;;2.15;;
2546;SDS011;1283;47.982;7.834;2022-09-12T06:06:34;9.95;;;2.35;;
2546;SDS011;1283;47.982;7.834;2022-09-12T06:09:03;3.67;;;2.47;;
2546;SDS011;1283;47.982;7.834;2022-09-12T06:11:30;3.17;;;2.30;;
2546;SDS011;1283;47.982;7.834;2022-09-12T06:13:58;11.35;;;2.20;;
2546;SDS011;1283;47.982;7.834;2022-09-12T06:16:26;5.97;;;1.88;;
2546;SDS011;1283;47.982;7.834;2022-09-12T06:18:54;6.72;;;1.90;;
2546;SDS011;1283;47.982;7.834;2022-09-12T06:21:22;2.40;;;1.63;;
2546;SDS011;1283;47.982;7.834;2022-09-12T06:23:50;6.60;;;1.48;;
2546;SDS011;1283;47.982;7.834;2022-09-12T06:26:19;3.97;;;1.30;;
2546;SDS011;1283;47.982;7.834;2022-09-12T06:28:47;3.25;;;1.48;;
2546;SDS011;1283;47.982;7.834;2022-09-12T06:31:15;3.58;;;1.52;;
2546;SDS011;1283;47.982;7.834;2022-09-12T06:33:44;5.70;;;1.50;;
2546;SDS011;1283;47.982;7.834;2022-09-12T06:36:12;8.60;;;1.95;;
2546;SDS011;1283;47.982;7.834;2022-09-12T06:38:40;7.68;;;1.60;;
2546;SDS011;1283;47.982;7.834;2022-09-12T06:41:08;7.75;;;1.45;;
2546;SDS011;1283;47.982;7.834;2022-09-12T06:43:38;4.93;;;1.70;;
2546;SDS011;1283;47.982;7.834;2022-09-12T06:46:05;5.40;;;1.92;;
2546;SDS011;1283;47.982;7.834;2022-09-12T06:48:32;3.22;;;2.35;;
2546;SDS011;1283;47.982;7.834;2022-09-12T06:50:59;8.20;;;2.00;;
2546;SDS011;1283;47.982;7.834;2022-09-12T06:53:26;3.83;;;2.33;;
2546;SDS011;1283;47.982;7.834;2022-09-12T06:55:54;3.15;;;2.05;;
2546;SDS011;1283;47.982;7.834;2022-09-12T06:58:22;3.08;;;1.90;;
2546;SDS011;1283;47.982;7.834;2022-09-12T07:00:49;3.85;;;1.95;;
2546;SDS011;1283;47.982;7.834;2022-09-12T07:03:16;8.63;;;2.10;;
2546;SDS011;1283;47.982;7.834;2022-09-12T07:05:43;3.13;;;1.88;;
2546;SDS011;1283;47.982;7.834;2022-09-12T07:08:10;3.72;;;1.98;;
2546;SDS011;1283;47.982;7.834;2022-09-12T07:10:36;14.35;;;2.72;;
2546;SDS011;1283;47.982;7.834;2022-09-12T07:13:03;5.22;;;1.95;;
2546;SDS011;1283;47.982;7.834;2022-09-12T07:15:29;8.45;;;2.15;;
2546;SDS011;1283;47.982;7.834;2022-09-12T07:17:57;9.05;;;2.10;;
2546;SDS011;1283;47.982;7.834;2022-09-12T07:20:23;9.15;;;2.05;;
2546;SDS011;1283;47.982;7.834;2022-09-12T07:22:50;5.28;;;2.03;;
2546;SDS011;1283;47.982;7.834;2022-09-12T07:25:16;3.88;;;2.10;;
2546;SDS011;1283;47.982;7.834;2022-09-12T07:27:42;10.02;;;2.60;;
2546;SDS011;1283;47.982;7.834;2022-09-12T07:30:09;7.53;;;2.03;;
2546;SDS011;1283;47.982;7.834;2022-09-12T07:32:36;4.85;;;2.38;;
2546;SDS011;1283;47.982;7.834;2022-09-12T07:35:04;5.97;;;2.38;;
2546;SDS011;1283;47.982;7.834;2022-09-12T07:37:31;7.68;;;3.17;;
2546;SDS011;1283;47.982;7.834;2022-09-12T07:39:58;9.38;;;2.20;;
2546;SDS011;1283;47.982;7.834;2022-09-12T07:42:24;7.47;;;2.00;;
2546;SDS011;1283;47.982;7.834;2022-09-12T07:44:51;2.67;;;1.92;;
2546;SDS011;1283;47.982;7.834;2022-09-12T07:47:17;7.30;;;2.47;;
2546;SDS011;1283;47.982;7.834;2022-09-12T07:49:44;9.80;;;2.90;;
2546;SDS011;1283;47.982;7.834;2022-09-12T07:52:13;4.85;;;2.58;;
2546;SDS011;1283;47.982;7.834;2022-09-12T07:54:39;7.53;;;2.33;;
2546;SDS011;1283;47.982;7.834;2022-09-12T07:57:05;4.15;;;2.00;;
2546;SDS011;1283;47.982;7.834;2022-09-12T07:59:32;5.65;;;2.33;;
2546;SDS011;1283;47.982;7.834;2022-09-12T08:01:59;7.95;;;2.30;;
2546;SDS011;1283;47.982;7.834;2022-09-12T08:04:25;5.65;;;2.50;;
2546;SDS011;1283;47.982;7.834;2022-09-12T08:06:51;3.30;;;2.70;;
2546;SDS011;1283;47.982;7.834;2022-09-12T08:09:19;11.98;;;3.22;;
2546;SDS011;1283;47.982;7.834;2022-09-12T08:11:46;7.82;;;2.88;;
2546;SDS011;1283;47.982;7.834;2022-09-12T08:14:12;4.40;;;2.70;;
2546;SDS011;1283;47.982;7.834;2022-09-12T08:16:41;17.75;;;3.75;;
2546;SDS011;1283;47.982;7.834;2022-09-12T08:19:08;11.77;;;3.45;;
2546;SDS011;1283;47.982;7.834;2022-09-12T08:21:36;3.90;;;2.67;;
2546;SDS011;1283;47.982;7.834;2022-09-12T08:24:02;4.90;;;2.65;;
2546;SDS011;1283;47.982;7.834;2022-09-12T08:26:32;5.68;;;3.38;;
2546;SDS011;1283;47.982;7.834;2022-09-12T08:28:59;5.55;;;3.00;;
2546;SDS011;1283;47.982;7.834;2022-09-12T08:31:26;8.45;;;3.38;;
2546;SDS011;1283;47.982;7.834;2022-09-12T08:33:54;6.93;;;3.03;;
2546;SDS011;1283;47.982;7.834;2022-09-12T08:36:22;6.47;;;3.00;;
2546;SDS011;1283;47.982;7.834;2022-09-12T08:38:50;6.97;;;3.50;;
2546;SDS011;1283;47.982;7.834;2022-09-12T08:41:20;5.10;;;3.30;;
2546;SDS011;1283;47.982;7.834;2022-09-12T08:43:56;7.40;;;3.60;;
2546;SDS011;1283;47.982;7.834;2022-09-12T08:46:31;5.55;;;3.05;;
2546;SDS011;1283;47.982;7.834;2022-09-12T08:49:02;7.25;;;3.22;;
2546;SDS011;1283;47.982;7.834;2022-09-12T08:51:29;7.80;;;2.85;;
2546;SDS011;1283;47.982;7.834;2022-09-12T08:53:56;6.82;;;2.92;;
2546;SDS011;1283;47.982;7.834;2022-09-12T08:56:23;9.18;;;2.97;;
2546;SDS011;1283;47.982;7.834;2022-09-12T08:58:51;4.30;;;2.47;;
2546;SDS011;1283;47.982;7.834;2022-09-12T09:01:22;6.63;;;3.55;;
2546;SDS011;1283;47.982;7.834;2022-09-12T09:06:58;8.02;;;3.53;;
2546;SDS011;1283;47.982;7.834;2022-09-12T09:09:38;12.15;;;3.25;;
2546;SDS011;1283;47.982;7.834;2022-09-12T09:12:15;6.18;;;3.25;;
2546;SDS011;1283;47.982;7.834;2022-09-12T09:14:52;8.02;;;3.80;;
2546;SDS011;1283;47.982;7.834;2022-09-12T09:17:28;6.10;;;3.40;;
2546;SDS011;1283;47.982;7.834;2022-09-12T09:20:01;9.77;;;3.05;;
2546;SDS011;1283;47.982;7.834;2022-09-12T09:22:34;10.80;;;2.80;;
2546;SDS011;1283;47.982;7.834;2022-09-12T09:25:06;6.47;;;3.72;;
2546;SDS011;1283;47.982;7.834;2022-09-12T09:27:40;7.40;;;3.22;;
2546;SDS011;1283;47.982;7.834;2022-09-12T09:30:12;6.28;;;2.60;;
2546;SDS011;1283;47.982;7.834;2022-09-12T09:32:41;5.47;;;3.15;;
2546;SDS011;1283;47.982;7.834;2022-09-12T09:35:12;6.40;;;3.25;;
2546;SDS011;1283;47.982;7.834;2022-09-12T09:37:41;7.93;;;3.15;;
2546;SDS011;1283;47.982;7.834;2022-09-12T09:40:12;8.82;;;3.00;;
2546;SDS011;1283;47.982;7.834;2022-09-12T09:42:44;5.35;;;3.20;;
2546;SDS011;1283;47.982;7.834;2022-09-12T09:45:18;19.23;;;3.25;;
2546;SDS011;1283;47.982;7.834;2022-09-12T09:47:49;7.80;;;2.95;;
2546;SDS011;1283;47.982;7.834;2022-09-12T09:50:17;3.97;;;2.78;;
2546;SDS011;1283;47.982;7.834;2022-09-12T09:52:44;12.45;;;2.63;;
2546;SDS011;1283;47.982;7.834;2022-09-12T09:55:11;3.90;;;2.28;;
2546;SDS011;1283;47.982;7.834;2022-09-12T09:57:42;5.05;;;2.35;;
2546;SDS011;1283;47.982;7.834;2022-09-12T10:00:27;5.13;;;2.20;;
2546;SDS011;1283;47.982;7.834;2022-09-12T10:05:54;3.63;;;2.30;;
2546;SDS011;1283;47.982;7.834;2022-09-12T10:08:24;5.05;;;2.50;;
2546;SDS011;1283;47.982;7.834;2022-09-12T10:10:53;4.82;;;2.45;;
2546;SDS011;1283;47.982;7.834;2022-09-12T10:13:23;3.58;;;2.70;;
2546;SDS011;1283;47.982;7.834;2022-09-12T10:15:56;4.40;;;2.28;;
2546;SDS011;1283;47.982;7.834;2022-09-12T10:18:36;7.65;;;2.33;;
2546;SDS011;1283;47.982;7.834;2022-09-12T10:21:18;5.47;;;2.30;;
2546;SDS011;1283;47.982;7.834;2022-09-12T10:23:49;5.32;;;2.20;;
2546;SDS011;1283;47.982;7.834;2022-09-12T10:26:18;4.90;;;2.40;;
2546;SDS011;1283;47.982;7.834;2022-09-12T10:28:46;4.63;;;2.30;;
2546;SDS011;1283;47.982;7.834;2022-09-12T10:31:15;9.45;;;2.22;;
2546;SDS011;1283;47.982;7.834;2022-09-12T10:33:50;2.22;;;1.85;;
2546;SDS011;1283;47.982;7.834;2022-09-12T10:36:17;6.20;;;1.88;;
2546;SDS011;1283;47.982;7.834;2022-09-12T10:38:47;6.55;;;1.95;;
2546;SDS011;1283;47.982;7.834;2022-09-12T10:41:14;5.60;;;1.60;;
2546;SDS011;1283;47.982;7.834;2022-09-12T10:43:41;3.97;;;1.50;;
2546;SDS011;1283;47.982;7.834;2022-09-12T10:46:20;4.97;;;1.92;;
2546;SDS011;1283;47.982;7.834;2022-09-12T10:48:49;3.75;;;1.65;;
2546;SDS011;1283;47.982;7.834;2022-09-12T10:51:25;3.95;;;1.70;;
2546;SDS011;1283;47.982;7.834;2022-09-12T10:53:52;6.22;;;1.98;;
2546;SDS011;1283;47.982;7.834;2022-09-12T10:56:20;5.70;;;1.90;;
2546;SDS011;1283;47.982;7.834;2022-09-12T10:58:51;4.50;;;1.85;;
2546;SDS011;1283;47.982;7.834;2022-09-12T11:01:28;3.85;;;1.85;;
2546;SDS011;1283;47.982;7.834;2022-09-12T11:04:08;4.28;;;1.40;;
2546;SDS011;1283;47.982;7.834;2022-09-12T11:06:59;2.63;;;1.50;;
2546;SDS011;1283;47.982;7.834;2022-09-12T11:09:39;2.95;;;1.50;;
2546;SDS011;1283;47.982;7.834;2022-09-12T11:12:10;2.10;;;1.40;;
2546;SDS011;1283;47.982;7.834;2022-09-12T11:14:44;2.58;;;1.42;;
2546;SDS011;1283;47.982;7.834;2022-09-12T11:17:24;5.57;;;1.50;;
2546;SDS011;1283;47.982;7.834;2022-09-12T11:20:05;6.82;;;1.60;;
2546;SDS011;1283;47.982;7.834;2022-09-12T11:22:47;2.58;;;1.70;;
2546;SDS011;1283;47.982;7.834;2022-09-12T11:25:27;4.95;;;1.52;;
2546;SDS011;1283;47.982;7.834;2022-09-12T11:28:11;4.20;;;1.73;;
2546;SDS011;1283;47.982;7.834;2022-09-12T11:30:46;7.38;;;1.65;;
2546;SDS011;1283;47.982;7.834;2022-09-12T11:33:23;2.47;;;1.48;;
2546;SDS011;1283;47.982;7.834;2022-09-12T11:35:58;3.40;;;1.73;;
2546;SDS011;1283;47.982;7.834;2022-09-12T11:38:32;4.10;;;1.35;;
2546;SDS011;1283;47.982;7.834;2022-09-12T11:41:04;2.30;;;1.30;;
2546;SDS011;1283;47.982;7.834;2022-09-12T11:43:35;2.08;;;1.40;;
2546;SDS011;1283;47.982;7.834;2022-09-12T11:46:05;5.32;;;1.75;;
2546;SDS011;1283;47.982;7.834;2022-09-12T11:48:39;4.07;;;1.55;;
2546;SDS011;1283;47.982;7.834;2022-09-12T11:51:14;6.57;;;1.50;;
2546;SDS011;1283;47.982;7.834;2022-09-12T11:53:43;3.10;;;1.42;;
2546;SDS011;1283;47.982;7.834;2022-09-12T11:56:13;2.97;;;1.60;;
2546;SDS011;1283;47.982;7.834;2022-09-12T11:58:42;2.72;;;1.55;;
2546;SDS011;1283;47.982;7.834;2022-09-12T12:01:11;9.55;;;1.75;;
2546;SDS011;1283;47.982;7.834;2022-09-12T12:03:39;2.33;;;1.40;;
2546;SDS011;1283;47.982;7.834;2022-09-12T12:06:10;6.15;;;1.50;;
2546;SDS011;1283;47.982;7.834;2022-09-12T12:08:40;2.05;;;1.40;;
2546;SDS011;1283;47.982;7.834;2022-09-12T12:11:07;3.88;;;1.67;;
2546;SDS011;1283;47.982;7.834;2022-09-12T12:13:35;3.08;;;1.30;;
2546;SDS011;1283;47.982;7.834;2022-09-12T12:16:03;3.38;;;1.45;;
2546;SDS011;1283;47.982;7.834;2022-09-12T12:18:32;2.97;;;1.60;;
2546;SDS011;1283;47.982;7.834;2022-09-12T12:21:16;3.55;;;1.48;;
2546;SDS011;1283;47.982;7.834;2022-09-12T12:26:40;2.65;;;1.40;;
2546;SDS011;1283;47.982;7.834;2022-09-12T12:29:08;2.03;;;1.67;;
2546;SDS011;1283;47.982;7.834;2022-09-12T12:31:47;5.03;;;1.60;;
2546;SDS011;1283;47.982;7.834;2022-09-12T12:34:46;2.00;;;1.30;;
2546;SDS011;1283;47.982;7.834;2022-09-12T12:40:26;2.22;;;1.50;;
2546;SDS011;1283;47.982;7.834;2022-09-12T12:42:58;3.85;;;1.45;;
2546;SDS011;1283;47.982;7.834;2022-09-12T12:48:25;1.90;;;1.58;;
2546;SDS011;1283;47.982;7.834;2022-09-12T12:54:01;2.35;;;1.27;;
2546;SDS011;1283;47.982;7.834;2022-09-12T12:56:34;5.22;;;1.48;;
2546;SDS011;1283;47.982;7.834;2022-09-12T12:59:11;3.35;;;1.67;;
2546;SDS011;1283;47.982;7.834;2022-09-12T13:01:43;1.97;;;1.23;;
2546;SDS011;1283;47.982;7.834;2022-09-12T13:04:11;9.68;;;1.50;;
2546;SDS011;1283;47.982;7.834;2022-09-12T13:06:40;5.28;;;1.60;;
2546;SDS011;1283;47.982;7.834;2022-09-12T13:09:08;8.10;;;1.70;;
2546;SDS011;1283;47.982;7.834;2022-09-12T13:11:44;5.57;;;1.35;;
2546;SDS011;1283;47.982;7.834;2022-09-12T13:17:03;5.68;;;1.20;;
2546;SDS011;1283;47.982;7.834;2022-09-12T13:19:32;1.55;;;1.23;;
2546;SDS011;1283;47.982;7.834;2022-09-12T13:22:02;3.13;;;1.50;;
2546;SDS011;1283;47.982;7.834;2022-09-12T13:24:30;3.97;;;1.40;;
2546;SDS011;1283;47.982;7.834;2022-09-12T13:26:58;6.40;;;1.70;;
2546;SDS011;1283;47.982;7.834;2022-09-12T13:29:25;8.27;;;1.63;;
2546;SDS011;1283;47.982;7.834;2022-09-12T13:31:53;3.05;;;1.40;;
2546;SDS011;1283;47.982;7.834;2022-09-12T13:34:23;3.15;;;1.75;;
2546;SDS011;1283;47.982;7.834;2022-09-12T13:36:53;3.67;;;1.67;;
2546;SDS011;1283;47.982;7.834;2022-09-12T13:39:31;4.60;;;1.50;;
2546;SDS011;1283;47.982;7.834;2022-09-12T13:42:14;3.55;;;1.20;;
2546;SDS011;1283;47.982;7.834;2022-09-12T13:45:02;4.43;;;1.10;;
2546;SDS011;1283;47.982;7.834;2022-09-12T13:47:31;2.88;;;1.30;;
2546;SDS011;1283;47.982;7.834;2022-09-12T13:49:58;7.45;;;1.30;;
2546;SDS011;1283;47.982;7.834;2022-09-12T13:52:27;2.15;;;1.52;;
2546;SDS011;1283;47.982;7.834;2022-09-12T13:54:56;6.05;;;1.48;;
2546;SDS011;1283;47.982;7.834;2022-09-12T13:57:28;2.72;;;1.58;;
2546;SDS011;1283;47.982;7.834;2022-09-12T13:59:58;3.40;;;1.50;;
2546;SDS011;1283;47.982;7.834;2022-09-12T14:02:27;3.92;;;1.75;;
2546;SDS011;1283;47.982;7.834;2022-09-12T14:04:55;2.95;;;1.10;;
2546;SDS011;1283;47.982;7.834;2022-09-12T14:10:23;3.08;;;1.40;;
2546;SDS011;1283;47.982;7.834;2022-09-12T14:12:54;5.57;;;1.55;;
2546;SDS011;1283;47.982;7.834;2022-09-12T14:15:21;1.52;;;1.10;;
2546;SDS011;1283;47.982;7.834;2022-09-12T14:17:50;2.08;;;1.20;;
2546;SDS011;1283;47.982;7.834;2022-09-12T14:20:19;5.13;;;1.40;;
2546;SDS011;1283;47.982;7.834;2022-09-12T14:22:47;2.75;;;1.48;;
2546;SDS011;1283;47.982;7.834;2022-09-12T14:25:14;4.10;;;1.40;;
2546;SDS011;1283;47.982;7.834;2022-09-12T14:27:42;5.80;;;1.75;;
2546;SDS011;1283;47.982;7.834;2022-09-12T14:30:23;10.10;;;1.50;;
2546;SDS011;1283;47.982;7.834;2022-09-12T14:33:04;9.40;;;1.10;;
2546;SDS011;1283;47.982;7.834;2022-09-12T14:35:41;1.90;;;1.27;;
2546;SDS011;1283;47.982;7.834;2022-09-12T14:38:11;3.63;;;1.40;;
2546;SDS011;1283;47.982;7.834;2022-09-12T14:40:43;2.58;;;1.25;;
2546;SDS011;1283;47.982;7.834;2022-09-12T14:43:16;1.42;;;1.02;;
2546;SDS011;1283;47.982;7.834;2022-09-12T14:45:52;3.35;;;1.20;;
2546;SDS011;1283;47.982;7.834;2022-09-12T14:48:19;2.22;;;1.00;;
2546;SDS011;1283;47.982;7.834;2022-09-12T14:50:47;3.25;;;1.08;;
2546;SDS011;1283;47.982;7.834;2022-09-12T14:53:20;7.68;;;1.17;;
2546;SDS011;1283;47.982;7.834;2022-09-12T14:55:50;7.43;;;1.00;;
2546;SDS011;1283;47.982;7.834;2022-09-12T14:58:21;9.13;;;1.83;;
2546;SDS011;1283;47.982;7.834;2022-09-12T15:00:55;2.53;;;1.20;;
2546;SDS011;1283;47.982;7.834;2022-09-12T15:03:24;6.18;;;1.08;;
2546;SDS011;1283;47.982;7.834;2022-09-12T15:05:53;2.85;;;1.20;;
2546;SDS011;1283;47.982;7.834;2022-09-12T15:08:19;1.73;;;0.90;;
2546;SDS011;1283;47.982;7.834;2022-09-12T15:10:46;3.63;;;1.23;;
2546;SDS011;1283;47.982;7.834;2022-09-12T15:13:14;2.75;;;1.20;;
2546;SDS011;1283;47.982;7.834;2022-09-12T15:15:43;5.18;;;1.23;;
2546;SDS011;1283;47.982;7.834;2022-09-12T15:18:12;2.28;;;1.20;;
2546;SDS011;1283;47.982;7.834;2022-09-12T15:20:40;2.03;;;1.55;;
2546;SDS011;1283;47.982;7.834;2022-09-12T15:23:09;2.83;;;1.20;;
2546;SDS011;1283;47.982;7.834;2022-09-12T15:25:41;5.47;;;1.20;;
2546;SDS011;1283;47.982;7.834;2022-09-12T15:28:12;2.45;;;1.10;;
2546;SDS011;1283;47.982;7.834;2022-09-12T15:30:41;3.60;;;1.00;;
2546;SDS011;1283;47.982;7.834;2022-09-12T15:33:08;3.25;;;1.90;;
2546;SDS011;1283;47.982;7.834;2022-09-12T15:35:36;3.92;;;1.10;;
2546;SDS011;1283;47.982;7.834;2022-09-12T15:38:03;2.10;;;1.15;;
2546;SDS011;1283;47.982;7.834;2022-09-12T15:40:29;4.30;;;1.27;;
2546;SDS011;1283;47.982;7.834;2022-09-12T15:42:55;4.05;;;1.00;;
2546;SDS011;1283;47.982;7.834;2022-09-12T15:45:22;5.90;;;1.17;;
2546;SDS011;1283;47.982;7.834;2022-09-12T15:47:52;7.00;;;1.27;;
2546;SDS011;1283;47.982;7.834;2022-09-12T15:50:18;2.35;;;1.30;;
2546;SDS011;1283;47.982;7.834;2022-09-12T15:52:46;3.78;;;1.20;;
2546;SDS011;1283;47.982;7.834;2022-09-12T15:55:14;2.45;;;1.00;;
2546;SDS011;1283;47.982;7.834;2022-09-12T15:57:42;1.60;;;1.05;;
2546;SDS011;1283;47.982;7.834;2022-09-12T16:00:09;1.48;;;1.00;;
2546;SDS011;1283;47.982;7.834;2022-09-12T16:02:37;7.47;;;1.00;;
2546;SDS011;1283;47.982;7.834;2022-09-12T16:05:03;5.78;;;1.10;;